sensor_id;sensor_type;location;lat;lon;timestamp;P1;durP1;ratioP1;P2;durP2;ratioP2
18146;SDS011;9199;48.832;9.182;2023-03-01T00:01:15;26.33;;;11.97;;
18146;SDS011;9199;48.832;9.182;2023-03-01T00:03:44;20.98;;;11.23;;
18146;SDS011;9199;48.832;9.182;2023-03-01T00:06:11;22.55;;;11.43;;
18146;SDS011;9199;48.832;9.182;2023-03-01T00:08:38;22.00;;;11.85;;
18146;SDS011;9199;48.832;9.182;2023-03-01T00:11:05;24.30;;;12.07;;
18146;SDS011;9199;48.832;9.182;2023-03-01T00:13:33;23.93;;;11.90;;
18146;SDS011;9199;48.832;9.182;2023-03-01T00:16:01;20.42;;;11.50;;
18146;SDS011;9199;48.832;9.182;2023-03-01T00:18:28;22.88;;;11.82;;
18146;SDS011;9199;48.832;9.182;2023-03-01T00:20:56;25.63;;;12.73;;
18146;SDS011;9199;48.832;9.182;2023-03-01T00:23:24;24.48;;;11.90;;
18146;SDS011;9199;48.832;9.182;2023-03-01T00:25:51;21.97;;;11.40;;
18146;SDS011;9199;48.832;9.182;2023-03-01T00:28:19;22.95;;;11.95;;
18146;SDS011;9199;48.832;9.182;2023-03-01T00:30:46;22.98;;;11.60;;
18146;SDS011;9199;48.832;9.182;2023-03-01T00:33:13;20.88;;;10.90;;
18146;SDS011;9199;48.832;9.182;2023-03-01T00:35:40;21.33;;;11.48;;
18146;SDS011;9199;48.832;9.182;2023-03-01T00:38:08;23.27;;;11.87;;
18146;SDS011;9199;48.832;9.182;2023-03-01T00:40:35;23.58;;;12.35;;
18146;SDS011;9199;48.832;9.182;2023-03-01T00:43:03;24.63;;;12.32;;
18146;SDS011;9199;48.832;9.182;2023-03-01T00:45:30;25.83;;;12.48;;
18146;SDS011;9199;48.832;9.182;2023-03-01T00:47:57;21.40;;;11.40;;
18146;SDS011;9199;48.832;9.182;2023-03-01T00:50:23;21.07;;;11.40;;
18146;SDS011;9199;48.832;9.182;2023-03-01T00:52:52;23.73;;;11.68;;
18146;SDS011;9199;48.832;9.182;2023-03-01T00:55:21;22.92;;;11.20;;
18146;SDS011;9199;48.832;9.182;2023-03-01T00:57:48;22.65;;;12.15;;
18146;SDS011;9199;48.832;9.182;2023-03-01T01:00:15;23.52;;;12.07;;
18146;SDS011;9199;48.832;9.182;2023-03-01T01:02:42;23.13;;;11.53;;
18146;SDS011;9199;48.832;9.182;2023-03-01T01:05:09;21.15;;;11.80;;
18146;SDS011;9199;48.832;9.182;2023-03-01T01:07:36;21.27;;;11.38;;
18146;SDS011;9199;48.832;9.182;2023-03-01T01:10:03;20.88;;;11.63;;
18146;SDS011;9199;48.832;9.182;2023-03-01T01:12:32;24.50;;;11.85;;
18146;SDS011;9199;48.832;9.182;2023-03-01T01:14:59;21.90;;;11.93;;
18146;SDS011;9199;48.832;9.182;2023-03-01T01:17:25;24.45;;;12.10;;
18146;SDS011;9199;48.832;9.182;2023-03-01T01:19:52;24.63;;;12.32;;
18146;SDS011;9199;48.832;9.182;2023-03-01T01:22:19;24.65;;;11.80;;
18146;SDS011;9199;48.832;9.182;2023-03-01T01:24:45;24.77;;;12.02;;
18146;SDS011;9199;48.832;9.182;2023-03-01T01:27:12;21.77;;;11.13;;
18146;SDS011;9199;48.832;9.182;2023-03-01T01:29:40;21.92;;;11.85;;
18146;SDS011;9199;48.832;9.182;2023-03-01T01:32:07;21.42;;;11.43;;
18146;SDS011;9199;48.832;9.182;2023-03-01T01:34:34;24.00;;;12.00;;
18146;SDS011;9199;48.832;9.182;2023-03-01T01:37:01;22.02;;;11.30;;
18146;SDS011;9199;48.832;9.182;2023-03-01T01:39:28;24.57;;;11.53;;
18146;SDS011;9199;48.832;9.182;2023-03-01T01:41:55;26.20;;;12.77;;
18146;SDS011;9199;48.832;9.182;2023-03-01T01:44:23;24.55;;;12.15;;
18146;SDS011;9199;48.832;9.182;2023-03-01T01:46:53;23.73;;;11.50;;
18146;SDS011;9199;48.832;9.182;2023-03-01T01:49:24;23.67;;;11.77;;
18146;SDS011;9199;48.832;9.182;2023-03-01T01:51:56;24.70;;;12.23;;
18146;SDS011;9199;48.832;9.182;2023-03-01T01:54:29;25.08;;;12.82;;
18146;SDS011;9199;48.832;9.182;2023-03-01T01:57:02;23.23;;;11.70;;
18146;SDS011;9199;48.832;9.182;2023-03-01T01:59:33;22.38;;;11.68;;
18146;SDS011;9199;48.832;9.182;2023-03-01T02:02:02;23.50;;;11.88;;
18146;SDS011;9199;48.832;9.182;2023-03-01T02:04:30;25.80;;;12.40;;
18146;SDS011;9199;48.832;9.182;2023-03-01T02:06:58;25.58;;;11.90;;
18146;SDS011;9199;48.832;9.182;2023-03-01T02:09:29;27.05;;;12.13;;
18146;SDS011;9199;48.832;9.182;2023-03-01T02:11:58;25.80;;;12.23;;
18146;SDS011;9199;48.832;9.182;2023-03-01T02:14:25;25.60;;;11.90;;
18146;SDS011;9199;48.832;9.182;2023-03-01T02:16:52;24.27;;;11.57;;
18146;SDS011;9199;48.832;9.182;2023-03-01T02:19:22;23.65;;;12.07;;
18146;SDS011;9199;48.832;9.182;2023-03-01T02:22:00;23.95;;;12.32;;
18146;SDS011;9199;48.832;9.182;2023-03-01T02:24:36;22.67;;;11.93;;
18146;SDS011;9199;48.832;9.182;2023-03-01T02:27:11;22.35;;;11.75;;
18146;SDS011;9199;48.832;9.182;2023-03-01T02:29:39;22.23;;;12.33;;
18146;SDS011;9199;48.832;9.182;2023-03-01T02:32:08;22.92;;;12.07;;
18146;SDS011;9199;48.832;9.182;2023-03-01T02:34:37;23.48;;;12.32;;
18146;SDS011;9199;48.832;9.182;2023-03-01T02:37:06;22.95;;;11.75;;
18146;SDS011;9199;48.832;9.182;2023-03-01T02:39:37;22.85;;;11.55;;
18146;SDS011;9199;48.832;9.182;2023-03-01T02:42:07;23.20;;;12.27;;
18146;SDS011;9199;48.832;9.182;2023-03-01T02:44:37;24.80;;;12.13;;
18146;SDS011;9199;48.832;9.182;2023-03-01T02:47:05;20.77;;;11.60;;
18146;SDS011;9199;48.832;9.182;2023-03-01T02:49:32;21.42;;;11.77;;
18146;SDS011;9199;48.832;9.182;2023-03-01T02:54:55;23.47;;;12.23;;
18146;SDS011;9199;48.832;9.182;2023-03-01T02:57:27;21.70;;;11.27;;
18146;SDS011;9199;48.832;9.182;2023-03-01T02:59:54;25.98;;;11.90;;
18146;SDS011;9199;48.832;9.182;2023-03-01T03:02:24;22.50;;;11.90;;
18146;SDS011;9199;48.832;9.182;2023-03-01T03:05:02;21.77;;;11.60;;
18146;SDS011;9199;48.832;9.182;2023-03-01T03:07:31;23.47;;;11.97;;
18146;SDS011;9199;48.832;9.182;2023-03-01T03:09:59;25.98;;;12.77;;
18146;SDS011;9199;48.832;9.182;2023-03-01T03:12:25;23.05;;;12.50;;
18146;SDS011;9199;48.832;9.182;2023-03-01T03:14:52;22.17;;;12.30;;
18146;SDS011;9199;48.832;9.182;2023-03-01T03:17:19;23.40;;;12.20;;
18146;SDS011;9199;48.832;9.182;2023-03-01T03:19:47;23.70;;;12.07;;
18146;SDS011;9199;48.832;9.182;2023-03-01T03:22:14;22.70;;;12.10;;
18146;SDS011;9199;48.832;9.182;2023-03-01T03:24:40;22.92;;;12.18;;
18146;SDS011;9199;48.832;9.182;2023-03-01T03:27:07;23.42;;;11.93;;
18146;SDS011;9199;48.832;9.182;2023-03-01T03:29:34;24.48;;;12.93;;
18146;SDS011;9199;48.832;9.182;2023-03-01T03:32:01;24.50;;;12.37;;
18146;SDS011;9199;48.832;9.182;2023-03-01T03:34:28;22.08;;;12.52;;
18146;SDS011;9199;48.832;9.182;2023-03-01T03:36:56;23.17;;;12.85;;
18146;SDS011;9199;48.832;9.182;2023-03-01T03:39:24;24.77;;;12.63;;
18146;SDS011;9199;48.832;9.182;2023-03-01T03:41:52;24.10;;;12.43;;
18146;SDS011;9199;48.832;9.182;2023-03-01T03:44:19;23.03;;;12.40;;
18146;SDS011;9199;48.832;9.182;2023-03-01T03:46:46;25.02;;;13.50;;
18146;SDS011;9199;48.832;9.182;2023-03-01T03:49:13;27.85;;;13.13;;
18146;SDS011;9199;48.832;9.182;2023-03-01T03:51:39;23.52;;;12.80;;
18146;SDS011;9199;48.832;9.182;2023-03-01T03:54:07;26.08;;;13.48;;
18146;SDS011;9199;48.832;9.182;2023-03-01T03:56:35;26.70;;;13.17;;
18146;SDS011;9199;48.832;9.182;2023-03-01T03:59:02;26.77;;;13.02;;
18146;SDS011;9199;48.832;9.182;2023-03-01T04:01:28;24.20;;;12.88;;
18146;SDS011;9199;48.832;9.182;2023-03-01T04:03:55;25.95;;;13.00;;
18146;SDS011;9199;48.832;9.182;2023-03-01T04:06:27;25.52;;;13.85;;
18146;SDS011;9199;48.832;9.182;2023-03-01T04:08:54;25.37;;;13.40;;
18146;SDS011;9199;48.832;9.182;2023-03-01T04:11:24;23.98;;;12.95;;
18146;SDS011;9199;48.832;9.182;2023-03-01T04:13:54;24.92;;;12.77;;
18146;SDS011;9199;48.832;9.182;2023-03-01T04:16:22;24.17;;;11.82;;
18146;SDS011;9199;48.832;9.182;2023-03-01T04:18:49;26.55;;;13.18;;
18146;SDS011;9199;48.832;9.182;2023-03-01T04:21:17;22.30;;;12.03;;
18146;SDS011;9199;48.832;9.182;2023-03-01T04:23:45;23.90;;;12.57;;
18146;SDS011;9199;48.832;9.182;2023-03-01T04:26:12;22.83;;;12.68;;
18146;SDS011;9199;48.832;9.182;2023-03-01T04:28:40;22.92;;;12.77;;
18146;SDS011;9199;48.832;9.182;2023-03-01T04:31:10;23.75;;;12.45;;
18146;SDS011;9199;48.832;9.182;2023-03-01T04:33:41;24.40;;;12.20;;
18146;SDS011;9199;48.832;9.182;2023-03-01T04:36:09;22.67;;;12.13;;
18146;SDS011;9199;48.832;9.182;2023-03-01T04:38:37;23.88;;;12.80;;
18146;SDS011;9199;48.832;9.182;2023-03-01T04:41:04;23.52;;;12.18;;
18146;SDS011;9199;48.832;9.182;2023-03-01T04:43:31;23.92;;;12.90;;
18146;SDS011;9199;48.832;9.182;2023-03-01T04:46:03;24.70;;;11.97;;
18146;SDS011;9199;48.832;9.182;2023-03-01T04:48:33;24.23;;;12.48;;
18146;SDS011;9199;48.832;9.182;2023-03-01T04:51:00;24.05;;;13.00;;
18146;SDS011;9199;48.832;9.182;2023-03-01T04:53:27;24.00;;;12.63;;
18146;SDS011;9199;48.832;9.182;2023-03-01T04:55:54;22.90;;;12.35;;
18146;SDS011;9199;48.832;9.182;2023-03-01T04:58:21;27.03;;;12.80;;
18146;SDS011;9199;48.832;9.182;2023-03-01T05:00:48;25.38;;;13.68;;
18146;SDS011;9199;48.832;9.182;2023-03-01T05:03:16;29.50;;;14.55;;
18146;SDS011;9199;48.832;9.182;2023-03-01T05:05:43;26.40;;;14.35;;
18146;SDS011;9199;48.832;9.182;2023-03-01T05:08:11;25.67;;;13.38;;
18146;SDS011;9199;48.832;9.182;2023-03-01T05:10:42;26.93;;;14.00;;
18146;SDS011;9199;48.832;9.182;2023-03-01T05:13:10;24.90;;;12.90;;
18146;SDS011;9199;48.832;9.182;2023-03-01T05:15:38;22.63;;;12.93;;
18146;SDS011;9199;48.832;9.182;2023-03-01T05:18:05;23.70;;;12.85;;
18146;SDS011;9199;48.832;9.182;2023-03-01T05:20:37;25.73;;;13.00;;
18146;SDS011;9199;48.832;9.182;2023-03-01T05:23:04;27.53;;;14.80;;
18146;SDS011;9199;48.832;9.182;2023-03-01T05:25:31;29.67;;;13.73;;
18146;SDS011;9199;48.832;9.182;2023-03-01T05:27:59;27.48;;;13.52;;
18146;SDS011;9199;48.832;9.182;2023-03-01T05:30:29;24.85;;;12.82;;
18146;SDS011;9199;48.832;9.182;2023-03-01T05:32:56;23.25;;;13.57;;
18146;SDS011;9199;48.832;9.182;2023-03-01T05:35:23;29.07;;;14.77;;
18146;SDS011;9199;48.832;9.182;2023-03-01T05:37:51;25.50;;;14.35;;
18146;SDS011;9199;48.832;9.182;2023-03-01T05:40:18;26.25;;;13.20;;
18146;SDS011;9199;48.832;9.182;2023-03-01T05:42:47;28.25;;;13.73;;
18146;SDS011;9199;48.832;9.182;2023-03-01T05:45:15;23.55;;;12.50;;
18146;SDS011;9199;48.832;9.182;2023-03-01T05:47:44;25.23;;;12.83;;
18146;SDS011;9199;48.832;9.182;2023-03-01T05:50:12;25.98;;;14.02;;
18146;SDS011;9199;48.832;9.182;2023-03-01T05:52:44;23.00;;;13.80;;
18146;SDS011;9199;48.832;9.182;2023-03-01T05:55:12;23.27;;;12.23;;
18146;SDS011;9199;48.832;9.182;2023-03-01T05:57:39;25.00;;;13.52;;
18146;SDS011;9199;48.832;9.182;2023-03-01T06:00:06;23.57;;;13.20;;
18146;SDS011;9199;48.832;9.182;2023-03-01T06:02:34;25.73;;;13.05;;
18146;SDS011;9199;48.832;9.182;2023-03-01T06:05:00;24.40;;;13.95;;
18146;SDS011;9199;48.832;9.182;2023-03-01T06:07:27;25.52;;;12.35;;
18146;SDS011;9199;48.832;9.182;2023-03-01T06:09:54;25.67;;;13.60;;
18146;SDS011;9199;48.832;9.182;2023-03-01T06:12:22;23.57;;;13.50;;
18146;SDS011;9199;48.832;9.182;2023-03-01T06:14:49;21.60;;;12.25;;
18146;SDS011;9199;48.832;9.182;2023-03-01T06:17:15;25.45;;;13.52;;
18146;SDS011;9199;48.832;9.182;2023-03-01T06:19:42;25.48;;;13.73;;
18146;SDS011;9199;48.832;9.182;2023-03-01T06:22:09;26.02;;;13.07;;
18146;SDS011;9199;48.832;9.182;2023-03-01T06:24:35;23.00;;;13.73;;
18146;SDS011;9199;48.832;9.182;2023-03-01T06:27:02;23.75;;;13.45;;
18146;SDS011;9199;48.832;9.182;2023-03-01T06:29:30;24.42;;;13.10;;
18146;SDS011;9199;48.832;9.182;2023-03-01T06:31:57;25.08;;;14.18;;
18146;SDS011;9199;48.832;9.182;2023-03-01T06:34:24;26.88;;;13.52;;
18146;SDS011;9199;48.832;9.182;2023-03-01T06:36:50;24.37;;;13.23;;
18146;SDS011;9199;48.832;9.182;2023-03-01T06:39:17;27.70;;;13.68;;
18146;SDS011;9199;48.832;9.182;2023-03-01T06:41:44;26.88;;;12.85;;
18146;SDS011;9199;48.832;9.182;2023-03-01T06:44:11;27.73;;;14.05;;
18146;SDS011;9199;48.832;9.182;2023-03-01T06:46:39;27.95;;;13.70;;
18146;SDS011;9199;48.832;9.182;2023-03-01T06:49:06;27.00;;;13.83;;
18146;SDS011;9199;48.832;9.182;2023-03-01T06:51:34;27.60;;;13.60;;
18146;SDS011;9199;48.832;9.182;2023-03-01T06:54:01;27.65;;;13.50;;
18146;SDS011;9199;48.832;9.182;2023-03-01T06:56:28;25.52;;;13.52;;
18146;SDS011;9199;48.832;9.182;2023-03-01T06:58:55;25.38;;;13.73;;
18146;SDS011;9199;48.832;9.182;2023-03-01T07:01:21;26.90;;;14.30;;
18146;SDS011;9199;48.832;9.182;2023-03-01T07:03:50;24.45;;;12.98;;
18146;SDS011;9199;48.832;9.182;2023-03-01T07:06:16;24.20;;;14.07;;
18146;SDS011;9199;48.832;9.182;2023-03-01T07:08:43;24.65;;;13.30;;
18146;SDS011;9199;48.832;9.182;2023-03-01T07:11:11;22.30;;;13.90;;
18146;SDS011;9199;48.832;9.182;2023-03-01T07:13:38;26.33;;;13.70;;
18146;SDS011;9199;48.832;9.182;2023-03-01T07:16:05;22.98;;;12.82;;
18146;SDS011;9199;48.832;9.182;2023-03-01T07:18:32;27.58;;;13.45;;
18146;SDS011;9199;48.832;9.182;2023-03-01T07:21:04;24.02;;;12.57;;
18146;SDS011;9199;48.832;9.182;2023-03-01T07:23:31;29.10;;;14.07;;
18146;SDS011;9199;48.832;9.182;2023-03-01T07:25:58;23.53;;;13.63;;
18146;SDS011;9199;48.832;9.182;2023-03-01T07:28:25;29.60;;;14.23;;
18146;SDS011;9199;48.832;9.182;2023-03-01T07:30:52;25.20;;;14.05;;
18146;SDS011;9199;48.832;9.182;2023-03-01T07:33:20;25.95;;;13.77;;
18146;SDS011;9199;48.832;9.182;2023-03-01T07:35:47;26.27;;;13.63;;
18146;SDS011;9199;48.832;9.182;2023-03-01T07:38:15;25.57;;;14.00;;
18146;SDS011;9199;48.832;9.182;2023-03-01T07:40:41;25.83;;;14.05;;
18146;SDS011;9199;48.832;9.182;2023-03-01T07:43:08;24.63;;;13.70;;
18146;SDS011;9199;48.832;9.182;2023-03-01T07:45:35;24.38;;;13.98;;
18146;SDS011;9199;48.832;9.182;2023-03-01T07:48:02;25.80;;;14.05;;
18146;SDS011;9199;48.832;9.182;2023-03-01T07:50:28;25.92;;;14.40;;
18146;SDS011;9199;48.832;9.182;2023-03-01T07:52:55;28.30;;;14.10;;
18146;SDS011;9199;48.832;9.182;2023-03-01T07:55:23;27.63;;;13.57;;
18146;SDS011;9199;48.832;9.182;2023-03-01T07:57:50;26.60;;;14.18;;
18146;SDS011;9199;48.832;9.182;2023-03-01T08:00:17;25.02;;;14.27;;
18146;SDS011;9199;48.832;9.182;2023-03-01T08:02:44;26.63;;;13.82;;
18146;SDS011;9199;48.832;9.182;2023-03-01T08:05:11;25.17;;;12.90;;
18146;SDS011;9199;48.832;9.182;2023-03-01T08:07:38;24.58;;;13.55;;
18146;SDS011;9199;48.832;9.182;2023-03-01T08:10:05;24.95;;;13.57;;
18146;SDS011;9199;48.832;9.182;2023-03-01T08:12:33;24.38;;;13.45;;
18146;SDS011;9199;48.832;9.182;2023-03-01T08:15:00;22.90;;;14.38;;
18146;SDS011;9199;48.832;9.182;2023-03-01T08:17:27;25.43;;;14.30;;
18146;SDS011;9199;48.832;9.182;2023-03-01T08:19:54;24.30;;;14.32;;
18146;SDS011;9199;48.832;9.182;2023-03-01T08:22:20;22.60;;;13.40;;
18146;SDS011;9199;48.832;9.182;2023-03-01T08:24:47;25.98;;;14.00;;
18146;SDS011;9199;48.832;9.182;2023-03-01T08:27:14;26.67;;;13.85;;
18146;SDS011;9199;48.832;9.182;2023-03-01T08:29:42;26.30;;;13.83;;
18146;SDS011;9199;48.832;9.182;2023-03-01T08:32:09;26.42;;;14.77;;
18146;SDS011;9199;48.832;9.182;2023-03-01T08:34:36;23.40;;;12.90;;
18146;SDS011;9199;48.832;9.182;2023-03-01T08:37:03;24.67;;;13.45;;
18146;SDS011;9199;48.832;9.182;2023-03-01T08:39:29;21.38;;;13.10;;
18146;SDS011;9199;48.832;9.182;2023-03-01T08:41:56;22.80;;;13.63;;
18146;SDS011;9199;48.832;9.182;2023-03-01T08:44:23;24.85;;;14.23;;
18146;SDS011;9199;48.832;9.182;2023-03-01T08:46:51;26.30;;;13.90;;
18146;SDS011;9199;48.832;9.182;2023-03-01T08:49:20;29.52;;;14.13;;
18146;SDS011;9199;48.832;9.182;2023-03-01T08:51:47;24.98;;;14.32;;
18146;SDS011;9199;48.832;9.182;2023-03-01T08:54:14;23.83;;;14.53;;
18146;SDS011;9199;48.832;9.182;2023-03-01T08:56:43;22.65;;;13.65;;
18146;SDS011;9199;48.832;9.182;2023-03-01T08:59:10;21.13;;;12.85;;
18146;SDS011;9199;48.832;9.182;2023-03-01T09:01:38;23.95;;;14.30;;
18146;SDS011;9199;48.832;9.182;2023-03-01T09:04:09;24.70;;;14.00;;
18146;SDS011;9199;48.832;9.182;2023-03-01T09:06:36;23.40;;;14.33;;
18146;SDS011;9199;48.832;9.182;2023-03-01T09:09:03;25.50;;;13.77;;
18146;SDS011;9199;48.832;9.182;2023-03-01T09:11:31;22.60;;;14.50;;
18146;SDS011;9199;48.832;9.182;2023-03-01T09:13:58;24.10;;;14.27;;
18146;SDS011;9199;48.832;9.182;2023-03-01T09:16:25;23.15;;;14.30;;
18146;SDS011;9199;48.832;9.182;2023-03-01T09:18:52;22.87;;;13.97;;
18146;SDS011;9199;48.832;9.182;2023-03-01T09:21:22;23.80;;;13.85;;
18146;SDS011;9199;48.832;9.182;2023-03-01T09:23:49;23.25;;;13.65;;
18146;SDS011;9199;48.832;9.182;2023-03-01T09:26:17;22.85;;;14.13;;
18146;SDS011;9199;48.832;9.182;2023-03-01T09:28:46;24.15;;;13.85;;
18146;SDS011;9199;48.832;9.182;2023-03-01T09:31:15;23.43;;;14.23;;
18146;SDS011;9199;48.832;9.182;2023-03-01T09:33:44;23.63;;;14.68;;
18146;SDS011;9199;48.832;9.182;2023-03-01T09:36:14;24.45;;;13.98;;
18146;SDS011;9199;48.832;9.182;2023-03-01T09:38:44;22.75;;;13.73;;
18146;SDS011;9199;48.832;9.182;2023-03-01T09:41:17;22.45;;;14.27;;
18146;SDS011;9199;48.832;9.182;2023-03-01T09:43:59;23.57;;;14.57;;
18146;SDS011;9199;48.832;9.182;2023-03-01T09:46:29;22.38;;;14.30;;
18146;SDS011;9199;48.832;9.182;2023-03-01T09:49:05;24.52;;;14.65;;
18146;SDS011;9199;48.832;9.182;2023-03-01T09:51:36;23.38;;;14.65;;
18146;SDS011;9199;48.832;9.182;2023-03-01T09:54:05;23.05;;;14.50;;
18146;SDS011;9199;48.832;9.182;2023-03-01T09:56:33;24.50;;;13.87;;
18146;SDS011;9199;48.832;9.182;2023-03-01T09:59:06;23.38;;;14.38;;
18146;SDS011;9199;48.832;9.182;2023-03-01T10:01:46;23.05;;;14.15;;
18146;SDS011;9199;48.832;9.182;2023-03-01T10:04:28;21.55;;;13.20;;
18146;SDS011;9199;48.832;9.182;2023-03-01T10:07:10;20.92;;;14.27;;
18146;SDS011;9199;48.832;9.182;2023-03-01T10:09:49;22.80;;;13.97;;
18146;SDS011;9199;48.832;9.182;2023-03-01T10:12:16;21.15;;;13.95;;
18146;SDS011;9199;48.832;9.182;2023-03-01T10:14:51;22.83;;;14.63;;
18146;SDS011;9199;48.832;9.182;2023-03-01T10:17:24;23.35;;;14.40;;
18146;SDS011;9199;48.832;9.182;2023-03-01T10:19:55;19.58;;;13.30;;
18146;SDS011;9199;48.832;9.182;2023-03-01T10:22:35;20.43;;;15.00;;
18146;SDS011;9199;48.832;9.182;2023-03-01T10:25:04;22.48;;;14.20;;
18146;SDS011;9199;48.832;9.182;2023-03-01T10:27:34;20.67;;;13.77;;
18146;SDS011;9199;48.832;9.182;2023-03-01T10:30:10;22.50;;;14.52;;
18146;SDS011;9199;48.832;9.182;2023-03-01T10:32:44;20.25;;;13.85;;
18146;SDS011;9199;48.832;9.182;2023-03-01T10:35:17;21.10;;;13.73;;
18146;SDS011;9199;48.832;9.182;2023-03-01T10:37:56;23.35;;;14.02;;
18146;SDS011;9199;48.832;9.182;2023-03-01T10:40:25;21.70;;;13.88;;
18146;SDS011;9199;48.832;9.182;2023-03-01T10:42:52;19.90;;;14.20;;
18146;SDS011;9199;48.832;9.182;2023-03-01T10:45:30;19.40;;;13.73;;
18146;SDS011;9199;48.832;9.182;2023-03-01T10:48:05;18.07;;;13.40;;
18146;SDS011;9199;48.832;9.182;2023-03-01T10:50:36;17.60;;;12.88;;
18146;SDS011;9199;48.832;9.182;2023-03-01T10:53:05;20.90;;;13.68;;
18146;SDS011;9199;48.832;9.182;2023-03-01T10:55:58;17.05;;;12.95;;
18146;SDS011;9199;48.832;9.182;2023-03-01T10:58:28;17.33;;;13.45;;
18146;SDS011;9199;48.832;9.182;2023-03-01T11:00:57;18.30;;;13.03;;
18146;SDS011;9199;48.832;9.182;2023-03-01T11:03:26;19.90;;;13.50;;
18146;SDS011;9199;48.832;9.182;2023-03-01T11:05:57;19.08;;;13.05;;
18146;SDS011;9199;48.832;9.182;2023-03-01T11:08:33;18.52;;;13.10;;
18146;SDS011;9199;48.832;9.182;2023-03-01T11:13:58;19.00;;;13.07;;
18146;SDS011;9199;48.832;9.182;2023-03-01T11:16:28;19.05;;;13.55;;
18146;SDS011;9199;48.832;9.182;2023-03-01T11:19:00;16.95;;;13.23;;
18146;SDS011;9199;48.832;9.182;2023-03-01T11:21:40;18.40;;;13.35;;
18146;SDS011;9199;48.832;9.182;2023-03-01T11:24:10;18.15;;;13.43;;
18146;SDS011;9199;48.832;9.182;2023-03-01T11:26:40;17.47;;;13.20;;
18146;SDS011;9199;48.832;9.182;2023-03-01T11:29:12;16.73;;;12.73;;
18146;SDS011;9199;48.832;9.182;2023-03-01T11:31:47;18.67;;;12.73;;
18146;SDS011;9199;48.832;9.182;2023-03-01T11:34:17;18.08;;;13.23;;
18146;SDS011;9199;48.832;9.182;2023-03-01T11:36:51;18.30;;;12.70;;
18146;SDS011;9199;48.832;9.182;2023-03-01T11:39:24;17.93;;;12.60;;
18146;SDS011;9199;48.832;9.182;2023-03-01T11:42:04;16.35;;;12.70;;
18146;SDS011;9199;48.832;9.182;2023-03-01T11:44:37;17.80;;;12.60;;
18146;SDS011;9199;48.832;9.182;2023-03-01T11:47:15;18.35;;;12.38;;
18146;SDS011;9199;48.832;9.182;2023-03-01T11:53:03;16.27;;;11.97;;
18146;SDS011;9199;48.832;9.182;2023-03-01T11:55:59;16.73;;;12.45;;
18146;SDS011;9199;48.832;9.182;2023-03-01T11:58:40;19.10;;;12.35;;
18146;SDS011;9199;48.832;9.182;2023-03-01T12:01:32;17.13;;;12.38;;
18146;SDS011;9199;48.832;9.182;2023-03-01T12:04:18;16.65;;;11.57;;
18146;SDS011;9199;48.832;9.182;2023-03-01T12:07:00;15.97;;;11.40;;
18146;SDS011;9199;48.832;9.182;2023-03-01T12:09:34;15.18;;;11.13;;
18146;SDS011;9199;48.832;9.182;2023-03-01T12:15:09;15.18;;;11.13;;
18146;SDS011;9199;48.832;9.182;2023-03-01T12:17:57;18.27;;;12.73;;
18146;SDS011;9199;48.832;9.182;2023-03-01T12:20:47;16.90;;;11.40;;
18146;SDS011;9199;48.832;9.182;2023-03-01T12:23:27;17.85;;;11.82;;
18146;SDS011;9199;48.832;9.182;2023-03-01T12:26:16;16.92;;;12.43;;
18146;SDS011;9199;48.832;9.182;2023-03-01T12:28:52;16.33;;;12.10;;
18146;SDS011;9199;48.832;9.182;2023-03-01T12:31:51;17.42;;;12.88;;
18146;SDS011;9199;48.832;9.182;2023-03-01T12:34:38;19.23;;;12.93;;
18146;SDS011;9199;48.832;9.182;2023-03-01T12:37:18;18.13;;;12.27;;
18146;SDS011;9199;48.832;9.182;2023-03-01T12:39:54;19.35;;;12.45;;
18146;SDS011;9199;48.832;9.182;2023-03-01T12:42:43;17.80;;;11.93;;
18146;SDS011;9199;48.832;9.182;2023-03-01T12:45:28;18.60;;;12.73;;
18146;SDS011;9199;48.832;9.182;2023-03-01T12:48:15;17.60;;;12.47;;
18146;SDS011;9199;48.832;9.182;2023-03-01T12:50:55;17.00;;;12.32;;
18146;SDS011;9199;48.832;9.182;2023-03-01T12:53:26;19.95;;;11.30;;
18146;SDS011;9199;48.832;9.182;2023-03-01T12:55:56;16.02;;;11.57;;
18146;SDS011;9199;48.832;9.182;2023-03-01T12:58:28;18.25;;;12.70;;
18146;SDS011;9199;48.832;9.182;2023-03-01T13:01:03;17.97;;;11.93;;
18146;SDS011;9199;48.832;9.182;2023-03-01T13:03:47;20.23;;;12.85;;
18146;SDS011;9199;48.832;9.182;2023-03-01T13:06:39;16.85;;;11.52;;
18146;SDS011;9199;48.832;9.182;2023-03-01T13:09:13;17.60;;;11.27;;
18146;SDS011;9199;48.832;9.182;2023-03-01T13:11:46;17.45;;;12.45;;
18146;SDS011;9199;48.832;9.182;2023-03-01T13:17:02;18.13;;;12.95;;
18146;SDS011;9199;48.832;9.182;2023-03-01T13:19:30;17.45;;;11.98;;
18146;SDS011;9199;48.832;9.182;2023-03-01T13:22:00;22.20;;;12.68;;
18146;SDS011;9199;48.832;9.182;2023-03-01T13:25:00;22.02;;;12.68;;
18146;SDS011;9199;48.832;9.182;2023-03-01T13:27:28;19.63;;;13.30;;
18146;SDS011;9199;48.832;9.182;2023-03-01T13:29:56;19.63;;;12.70;;
18146;SDS011;9199;48.832;9.182;2023-03-01T13:32:28;20.30;;;12.98;;
18146;SDS011;9199;48.832;9.182;2023-03-01T13:35:01;20.75;;;13.45;;
18146;SDS011;9199;48.832;9.182;2023-03-01T13:37:31;18.70;;;13.10;;
18146;SDS011;9199;48.832;9.182;2023-03-01T13:40:01;20.33;;;12.83;;
18146;SDS011;9199;48.832;9.182;2023-03-01T13:42:56;20.73;;;12.77;;
18146;SDS011;9199;48.832;9.182;2023-03-01T13:45:43;19.80;;;12.20;;
18146;SDS011;9199;48.832;9.182;2023-03-01T13:48:15;22.65;;;13.52;;
18146;SDS011;9199;48.832;9.182;2023-03-01T13:50:50;19.95;;;12.82;;
18146;SDS011;9199;48.832;9.182;2023-03-01T13:53:21;17.43;;;12.40;;
18146;SDS011;9199;48.832;9.182;2023-03-01T13:55:51;23.17;;;13.35;;
18146;SDS011;9199;48.832;9.182;2023-03-01T13:58:24;19.90;;;12.73;;
18146;SDS011;9199;48.832;9.182;2023-03-01T14:00:57;19.40;;;13.02;;
18146;SDS011;9199;48.832;9.182;2023-03-01T14:03:26;19.50;;;13.70;;
18146;SDS011;9199;48.832;9.182;2023-03-01T14:06:00;19.70;;;13.13;;
18146;SDS011;9199;48.832;9.182;2023-03-01T14:08:31;18.38;;;12.73;;
18146;SDS011;9199;48.832;9.182;2023-03-01T14:11:06;21.08;;;13.18;;
18146;SDS011;9199;48.832;9.182;2023-03-01T14:14:07;19.75;;;13.57;;
18146;SDS011;9199;48.832;9.182;2023-03-01T14:16:52;21.95;;;12.43;;
18146;SDS011;9199;48.832;9.182;2023-03-01T14:19:27;21.37;;;13.50;;
18146;SDS011;9199;48.832;9.182;2023-03-01T14:22:02;18.33;;;12.75;;
18146;SDS011;9199;48.832;9.182;2023-03-01T14:24:39;19.10;;;13.02;;
18146;SDS011;9199;48.832;9.182;2023-03-01T14:27:12;19.55;;;13.23;;
18146;SDS011;9199;48.832;9.182;2023-03-01T14:29:40;20.33;;;14.48;;
18146;SDS011;9199;48.832;9.182;2023-03-01T14:32:11;22.17;;;14.00;;
18146;SDS011;9199;48.832;9.182;2023-03-01T14:34:44;21.42;;;13.95;;
18146;SDS011;9199;48.832;9.182;2023-03-01T14:37:21;17.90;;;13.20;;
18146;SDS011;9199;48.832;9.182;2023-03-01T14:39:50;20.05;;;13.15;;
18146;SDS011;9199;48.832;9.182;2023-03-01T14:42:18;21.17;;;13.73;;
18146;SDS011;9199;48.832;9.182;2023-03-01T14:44:47;18.27;;;13.17;;
18146;SDS011;9199;48.832;9.182;2023-03-01T14:47:19;21.42;;;13.68;;
18146;SDS011;9199;48.832;9.182;2023-03-01T14:49:52;21.02;;;13.82;;
18146;SDS011;9199;48.832;9.182;2023-03-01T14:52:25;20.30;;;13.85;;
18146;SDS011;9199;48.832;9.182;2023-03-01T14:54:59;19.58;;;13.63;;
18146;SDS011;9199;48.832;9.182;2023-03-01T14:57:28;21.00;;;13.93;;
18146;SDS011;9199;48.832;9.182;2023-03-01T14:59:55;21.50;;;14.15;;
18146;SDS011;9199;48.832;9.182;2023-03-01T15:02:26;20.50;;;13.93;;
18146;SDS011;9199;48.832;9.182;2023-03-01T15:04:56;20.67;;;14.07;;
18146;SDS011;9199;48.832;9.182;2023-03-01T15:07:28;23.42;;;13.73;;